Time;durP1;ratioP1;P1;durP2;ratioP2;P2;SDS_P1;SDS_P2;PMS_P1;PMS_P2;Temp;Humidity;BMP_temperature;BMP_pressure;BME280_temperature;BME280_humidity;BME280_pressure;Samples;Min_cycle;Max_cycle;Signal;HPM_P1;HPM_P2
2022/07/12 00:00:21;;;;;;;10.00;3.00;;;;;;;14.71;82.21;98944.19;109066;1276;139441;-63
2022/07/12 00:02:48;;;;;;;9.20;3.30;;;;;;;14.73;82.18;98938.67;109239;1276;23223;-64
2022/07/12 00:05:16;;;;;;;10.60;3.60;;;;;;;14.73;82.11;98944.42;108446;1276;22732;-63
2022/07/12 00:07:42;;;;;;;10.00;3.30;;;;;;;14.73;82.01;98944.33;104842;1277;138537;-64
2022/07/12 00:10:09;;;;;;;8.20;2.80;;;;;;;14.72;81.85;98944.98;105057;1276;22637;-64
2022/07/12 00:12:36;;;;;;;5.60;2.30;;;;;;;14.73;81.91;98944.55;105021;1274;140830;-64
2022/07/12 00:15:03;;;;;;;5.50;1.60;;;;;;;14.72;81.87;98948.83;105132;1276;25526;-63
2022/07/12 00:17:30;;;;;;;4.30;1.50;;;;;;;14.71;81.83;98942.45;104845;1276;22557;-64
2022/07/12 00:19:57;;;;;;;4.80;1.50;;;;;;;14.71;81.81;98943.98;104921;1277;139841;-64
2022/07/12 00:22:24;;;;;;;3.40;1.50;;;;;;;14.69;81.72;98940.01;105022;1276;24917;-64
2022/07/12 00:24:51;;;;;;;12.00;2.60;;;;;;;14.67;81.56;98943.39;104881;1277;138568;-63
2022/07/12 00:27:18;;;;;;;3.40;1.70;;;;;;;14.66;81.64;98941.27;105162;1276;22549;-63
2022/07/12 00:29:44;;;;;;;4.70;2.40;;;;;;;14.63;81.67;98944.05;104997;1276;22557;-64
2022/07/12 00:32:11;;;;;;;7.80;2.50;;;;;;;14.61;81.73;98940.46;104669;1277;138160;-65
2022/07/12 00:34:38;;;;;;;2.90;1.70;;;;;;;14.60;81.72;98942.39;105087;1277;22646;-64
2022/07/12 00:37:05;;;;;;;4.10;1.40;;;;;;;14.60;81.84;98940.20;104970;1278;139983;-64
2022/07/12 00:39:32;;;;;;;4.50;2.10;;;;;;;14.60;81.76;98938.98;105017;1277;22627;-64
2022/07/12 00:41:58;;;;;;;2.30;1.20;;;;;;;14.58;81.62;98933.86;105091;1278;25294;-65
2022/07/12 00:44:26;;;;;;;3.70;1.30;;;;;;;14.57;81.70;98939.66;104936;1276;139621;-64
2022/07/12 00:46:56;;;;;;;4.10;2.30;;;;;;;14.56;81.76;98944.17;104896;1278;24157;-65
2022/07/12 00:49:23;;;;;;;5.50;2.10;;;;;;;14.55;81.87;98941.55;104977;1276;139819;-64
2022/07/12 00:51:50;;;;;;;7.00;2.00;;;;;;;14.55;81.90;98944.64;104847;1278;25556;-65
2022/07/12 00:54:17;;;;;;;5.70;2.40;;;;;;;14.53;81.83;98939.67;104845;1278;24242;-66
2022/07/12 00:56:44;;;;;;;7.80;2.50;;;;;;;14.50;81.85;98943.81;104905;1276;24304;-65
2022/07/12 00:59:11;;;;;;;6.60;2.30;;;;;;;14.49;81.86;98940.60;105049;1277;23983;-65
2022/07/12 01:01:38;;;;;;;6.50;3.30;;;;;;;14.46;81.85;98939.36;104821;1277;138527;-65
2022/07/12 01:04:05;;;;;;;7.40;2.60;;;;;;;14.45;81.92;98943.34;104896;1278;24130;-65
2022/07/12 01:06:32;;;;;;;8.20;2.70;;;;;;;14.43;81.99;98936.56;104981;1276;139104;-65
2022/07/12 01:08:59;;;;;;;11.60;2.80;;;;;;;14.42;81.99;98941.91;105026;1277;25438;-65
2022/07/12 01:11:26;;;;;;;7.10;1.60;;;;;;;14.40;82.05;98938.66;105012;1276;25343;-65
2022/07/12 01:13:53;;;;;;;2.60;1.50;;;;;;;14.39;82.08;98939.80;104848;1277;139754;-64
2022/07/12 01:16:19;;;;;;;4.50;1.30;;;;;;;14.37;82.01;98939.66;105062;1277;23690;-64
2022/07/12 01:18:46;;;;;;;3.60;1.80;;;;;;;14.35;82.06;98936.98;104892;1276;138169;-64
2022/07/12 01:21:18;;;;;;;4.80;1.80;;;;;;;14.34;82.06;98940.41;105172;1276;22615;-64
2022/07/12 01:23:45;;;;;;;6.80;1.80;;;;;;;14.33;82.21;98938.88;105007;1277;22572;-64
2022/07/12 01:26:12;;;;;;;1.90;1.30;;;;;;;14.32;82.22;98941.03;104824;1277;138842;-64
2022/07/12 01:28:39;;;;;;;1.60;1.40;;;;;;;14.30;82.26;98940.50;104876;1277;24233;-64
2022/07/12 01:31:06;;;;;;;4.20;1.50;;;;;;;14.29;82.39;98938.45;104838;1277;138454;-65
2022/07/12 01:33:33;;;;;;;2.90;1.20;;;;;;;14.27;82.44;98934.45;105090;1277;25636;-64
2022/07/12 01:36:00;;;;;;;3.60;1.10;;;;;;;14.26;82.17;98934.73;104772;1276;25652;-64
2022/07/12 01:38:27;;;;;;;1.40;1.20;;;;;;;14.23;82.30;98933.56;104836;1276;138202;-64
2022/07/12 01:40:54;;;;;;;2.10;0.90;;;;;;;14.19;82.26;98928.19;105047;1277;22585;-62
2022/07/12 01:43:20;;;;;;;1.80;1.10;;;;;;;14.19;82.23;98937.83;104914;1276;138626;-62
2022/07/12 01:45:47;;;;;;;1.40;0.90;;;;;;;14.18;82.26;98937.52;105291;1276;22631;-63
2022/07/12 01:48:14;;;;;;;7.50;1.30;;;;;;;14.15;82.39;98936.67;105088;1276;26773;-63
2022/07/12 01:50:42;;;;;;;3.30;1.00;;;;;;;14.13;82.08;98935.95;104752;1278;137870;-63
2022/07/12 01:53:11;;;;;;;5.80;1.30;;;;;;;14.08;82.03;98932.17;104923;1277;25305;-64
2022/07/12 01:55:38;;;;;;;1.10;1.00;;;;;;;14.06;82.14;98934.13;104695;1277;138987;-63
2022/07/12 01:58:05;;;;;;;3.80;1.20;;;;;;;14.04;82.17;98936.34;104970;1276;22561;-63
2022/07/12 02:00:32;;;;;;;3.40;1.20;;;;;;;14.02;82.08;98941.06;104842;1276;138294;-63
2022/07/12 02:02:59;;;;;;;2.00;1.10;;;;;;;14.00;82.16;98939.06;105050;1276;22561;-64
2022/07/12 02:05:26;;;;;;;2.50;1.00;;;;;;;13.99;82.25;98943.31;105108;1277;22904;-64
2022/07/12 02:07:53;;;;;;;4.00;1.20;;;;;;;13.97;82.22;98941.00;104823;1277;139152;-64
2022/07/12 02:10:19;;;;;;;4.00;1.10;;;;;;;13.95;82.12;98938.50;104795;1277;26402;-64
2022/07/12 02:12:46;;;;;;;1.80;1.20;;;;;;;13.92;82.17;98941.38;104851;1277;138211;-64
2022/07/12 02:15:13;;;;;;;1.40;1.10;;;;;;;13.89;82.25;98941.58;104874;1278;22599;-70
2022/07/12 02:17:40;;;;;;;2.70;1.20;;;;;;;13.88;82.17;98949.31;105000;1276;22783;-70
2022/07/12 02:20:09;;;;;;;1.80;1.10;;;;;;;13.86;82.18;98950.04;104909;1276;142654;-71
2022/07/12 02:22:36;;;;;;;7.20;1.10;;;;;;;13.85;82.22;98958.52;104804;1277;22872;-70
2022/07/12 02:25:04;;;;;;;2.20;1.20;;;;;;;13.84;82.17;98957.27;104935;1276;140432;-70
2022/07/12 02:27:30;;;;;;;1.50;1.30;;;;;;;13.81;82.21;98962.23;104911;1277;25013;-71
2022/07/12 02:29:57;;;;;;;5.40;1.50;;;;;;;13.80;82.08;98963.45;104955;1278;23028;-71
2022/07/12 02:32:24;;;;;;;1.90;1.00;;;;;;;13.79;82.04;98964.00;105007;1277;139041;-71
2022/07/12 02:34:51;;;;;;;1.70;0.80;;;;;;;13.78;82.14;98968.73;104967;1277;22599;-70
2022/07/12 02:37:17;;;;;;;2.20;1.00;;;;;;;13.77;82.16;98968.06;104953;1277;138401;-69
2022/07/12 02:39:44;;;;;;;5.10;1.00;;;;;;;13.77;82.07;98972.52;105078;1276;22591;-69
2022/07/12 02:42:11;;;;;;;5.40;1.10;;;;;;;13.76;82.11;98975.64;104961;1277;24278;-69
2022/07/12 02:44:38;;;;;;;1.60;0.90;;;;;;;13.75;82.05;98977.45;104972;1278;138651;-69
2022/07/12 02:47:05;;;;;;;3.90;1.10;;;;;;;13.74;82.04;98977.08;104984;1278;22809;-65
2022/07/12 02:49:32;;;;;;;7.70;1.10;;;;;;;13.74;82.11;98980.16;104851;1276;138914;-64
2022/07/12 02:52:01;;;;;;;2.70;1.20;;;;;;;13.72;81.90;98977.59;104812;1278;22559;-65
2022/07/12 02:54:28;;;;;;;4.60;1.00;;;;;;;13.72;81.98;98980.23;104893;1278;139197;-64
2022/07/12 02:56:55;;;;;;;2.00;1.10;;;;;;;13.72;81.97;98978.36;105032;1277;24225;-64
2022/07/12 02:59:21;;;;;;;3.00;1.10;;;;;;;13.73;81.95;98980.33;104890;1278;25346;-64
2022/07/12 03:01:48;;;;;;;;;;;;;;;13.73;81.94;98978.89;104944;1277;137907;-65
2022/07/12 03:04:15;;;;;;;1.40;1.10;;;;;;;13.73;81.97;98979.05;105073;1277;24209;-65
2022/07/12 03:06:42;;;;;;;2.50;0.90;;;;;;;13.72;81.78;98978.84;104783;1278;138273;-65
2022/07/12 03:09:08;;;;;;;4.70;1.00;;;;;;;13.73;81.81;98977.75;105035;1278;24138;-65
2022/07/12 03:11:35;;;;;;;2.60;1.30;;;;;;;13.73;81.75;98973.64;104993;1277;24311;-65
2022/07/12 03:14:02;;;;;;;1.70;1.50;;;;;;;13.74;81.62;98971.33;104854;1277;138154;-65
2022/07/12 03:16:29;;;;;;;2.00;1.10;;;;;;;13.75;81.50;98977.29;104986;1277;22815;-64
2022/07/12 03:18:56;;;;;;;4.30;1.20;;;;;;;13.74;81.29;98978.40;104921;1277;139504;-64
2022/07/12 03:21:22;;;;;;;3.30;1.40;;;;;;;13.74;81.40;98973.69;104964;1278;22586;-65
2022/07/12 03:23:49;;;;;;;3.90;1.20;;;;;;;13.75;81.36;98972.80;104905;1277;25831;-64
2022/07/12 03:26:16;;;;;;;1.80;1.10;;;;;;;13.75;81.26;98972.59;104658;1278;138843;-65
2022/07/12 03:28:43;;;;;;;2.80;1.10;;;;;;;13.75;81.17;98969.90;104731;1277;24229;-64
2022/07/12 03:31:10;;;;;;;1.60;1.10;;;;;;;13.75;81.23;98977.52;104620;1280;138116;-64
2022/07/12 03:33:36;;;;;;;9.10;1.20;;;;;;;13.76;81.40;98980.29;105030;1277;22562;-63
2022/07/12 03:36:06;;;;;;;1.70;1.20;;;;;;;13.77;81.39;98979.56;105067;1278;25490;-64
2022/07/12 03:38:33;;;;;;;6.10;1.40;;;;;;;13.79;81.42;98979.94;108985;1277;138107;-64
2022/07/12 03:41:01;;;;;;;1.90;1.30;;;;;;;13.83;81.31;98977.00;109242;1276;22679;-65
2022/07/12 03:43:27;;;;;;;5.70;1.60;;;;;;;13.85;81.13;98980.30;109156;1276;137911;-65
2022/07/12 03:45:54;;;;;;;3.00;1.40;;;;;;;13.88;80.97;98979.98;109248;1277;22478;-64
2022/07/12 03:48:21;;;;;;;2.00;1.20;;;;;;;13.91;81.07;98984.66;109228;1275;140079;-64
2022/07/12 03:50:49;;;;;;;5.20;1.30;;;;;;;13.95;81.09;98981.84;109243;1275;22456;-65
2022/07/12 03:53:16;;;;;;;2.60;1.40;;;;;;;13.98;80.89;98983.42;109220;1277;22537;-64
2022/07/12 03:55:43;;;;;;;3.40;1.20;;;;;;;14.02;80.58;98985.73;109179;1276;139645;-65
2022/07/12 03:58:10;;;;;;;4.10;1.00;;;;;;;14.04;80.48;98985.52;109234;1275;22414;-65
2022/07/12 04:00:37;;;;;;;1.90;1.00;;;;;;;14.07;80.46;98983.81;109176;1275;140033;-64
2022/07/12 04:03:04;;;;;;;1.50;1.20;;;;;;;14.10;80.44;98989.73;109314;1275;22479;-64
2022/07/12 04:05:31;;;;;;;1.20;1.10;;;;;;;14.13;80.27;98989.63;109180;1277;22578;-64
2022/07/12 04:07:58;;;;;;;1.60;1.10;;;;;;;14.16;79.84;98998.86;109111;1275;139649;-64
2022/07/12 04:10:25;;;;;;;3.30;1.50;;;;;;;14.18;79.53;98998.67;109135;1277;22596;-64
2022/07/12 04:12:51;;;;;;;4.30;1.30;;;;;;;14.20;79.37;99000.02;109114;1276;138639;-64
2022/07/12 04:15:20;;;;;;;2.60;1.30;;;;;;;14.23;79.23;99000.15;109296;1275;22504;-64
2022/07/12 04:17:47;;;;;;;1.90;1.10;;;;;;;14.24;78.88;99000.41;109193;1277;22568;-64
2022/07/12 04:20:14;;;;;;;2.20;1.10;;;;;;;14.26;78.77;99000.98;109147;1277;138481;-64
2022/07/12 04:22:41;;;;;;;5.10;1.80;;;;;;;14.29;78.60;99001.32;109094;1276;22388;-64
2022/07/12 04:25:09;;;;;;;4.80;1.50;;;;;;;14.32;78.66;99004.02;109123;1277;138249;-63
2022/07/12 04:27:36;;;;;;;6.60;1.20;;;;;;;14.35;78.64;99003.70;104740;1277;22631;-64
2022/07/12 04:30:04;;;;;;;8.00;1.80;;;;;;;14.40;78.53;99001.36;109238;1277;22490;-64
2022/07/12 04:32:30;;;;;;;3.60;1.20;;;;;;;14.45;78.38;99000.28;109181;1276;138885;-64
2022/07/12 04:34:57;;;;;;;3.20;1.60;;;;;;;14.49;78.08;98999.46;109178;1277;23339;-64
2022/07/12 04:37:24;;;;;;;5.40;1.10;;;;;;;14.54;77.93;99003.73;109133;1276;139172;-64
2022/07/12 04:39:51;;;;;;;2.30;1.60;;;;;;;14.57;77.76;99000.46;109247;1276;22455;-64
2022/07/12 04:42:18;;;;;;;5.70;1.80;;;;;;;14.60;77.55;99003.27;109323;1276;22528;-64
2022/07/12 04:44:45;;;;;;;2.80;1.50;;;;;;;14.63;77.40;99005.59;109296;1276;23436;-64
2022/07/12 04:47:12;;;;;;;4.40;1.90;;;;;;;14.65;77.26;99012.02;109307;1276;23450;-64
2022/07/12 04:49:38;;;;;;;5.90;1.40;;;;;;;14.67;77.17;99013.38;109047;1276;139506;-64
2022/07/12 04:52:06;;;;;;;2.40;1.10;;;;;;;14.69;77.10;99016.19;109165;1276;22458;-65
2022/07/12 04:54:32;;;;;;;6.10;1.20;;;;;;;14.72;76.98;99016.19;109133;1276;139674;-64
2022/07/12 04:56:59;;;;;;;1.70;1.30;;;;;;;14.76;77.13;99011.67;106021;1277;23351;-64
2022/07/12 04:59:26;;;;;;;3.40;1.60;;;;;;;14.80;76.69;99015.79;104974;1277;25492;-64
2022/07/12 05:01:53;;;;;;;5.40;1.70;;;;;;;14.82;76.58;99016.92;104879;1276;140591;-64
2022/07/12 05:04:20;;;;;;;2.20;1.40;;;;;;;14.87;76.54;99024.05;105047;1277;24963;-64
2022/07/12 05:06:48;;;;;;;4.70;1.10;;;;;;;14.92;76.58;99026.46;104917;1276;138602;-65
2022/07/12 05:09:15;;;;;;;1.60;1.10;;;;;;;15.00;76.95;99032.52;108792;1276;560614;-65
2022/07/12 05:13:21;;;;;;;3.70;1.40;;;;;;;15.21;76.71;99022.48;101879;1309;545380;-64
2022/07/12 05:15:48;;;;;;;3.70;1.30;;;;;;;15.35;76.14;99024.83;104061;1286;25550;-63
2022/07/12 05:18:15;;;;;;;1.40;1.20;;;;;;;15.54;75.40;99022.45;104031;1287;23094;-64
2022/07/12 05:20:42;;;;;;;2.30;1.50;;;;;;;15.80;74.81;99023.41;107961;1287;142474;-64
2022/07/12 05:23:17;;;;;;;2.40;1.30;;;;;;;16.17;74.40;99026.95;108320;1286;23206;-64
2022/07/12 05:25:43;;;;;;;2.40;1.40;;;;;;;16.60;73.35;99032.46;108057;1287;138879;-65
2022/07/12 05:28:11;;;;;;;2.70;1.40;;;;;;;17.08;72.08;99036.30;108168;1286;266713;-65
2022/07/12 05:30:38;;;;;;;4.30;1.60;;;;;;;17.59;70.63;99040.59;108211;1286;139667;-65
2022/07/12 05:33:04;;;;;;;2.90;1.50;;;;;;;18.11;69.24;99031.92;108529;1284;22485;-65
2022/07/12 05:35:31;;;;;;;2.40;1.50;;;;;;;18.66;67.63;99031.38;107739;1286;22733;-65
2022/07/12 05:37:58;;;;;;;5.40;1.40;;;;;;;19.18;65.92;99031.04;103955;1286;138569;-65
2022/07/12 05:40:25;;;;;;;2.70;1.30;;;;;;;19.65;64.76;99027.35;104150;1287;25283;-66
2022/07/12 05:42:51;;;;;;;1.40;1.30;;;;;;;20.08;63.56;99025.52;103937;1286;137182;-65
2022/07/12 05:45:19;;;;;;;4.40;1.40;;;;;;;20.51;62.46;99026.26;108338;1286;22421;-65
2022/07/12 05:47:46;;;;;;;4.30;1.30;;;;;;;20.87;60.87;99024.55;108356;1286;23093;-66
2022/07/12 05:50:13;;;;;;;3.10;1.00;;;;;;;21.04;59.55;99031.86;108264;1286;138825;-65
2022/07/12 05:55:25;;;;;;;2.80;1.30;;;;;;;21.10;58.14;99029.91;109166;1276;138026;-65
2022/07/12 05:57:52;;;;;;;4.30;1.20;;;;;;;21.06;57.98;99029.36;109235;1275;22436;-66
2022/07/12 06:00:18;;;;;;;4.60;1.60;;;;;;;20.98;57.77;99030.12;109041;1278;22445;-65
2022/07/12 06:02:45;;;;;;;6.30;1.40;;;;;;;20.86;57.90;99026.02;109160;1277;22403;-65
2022/07/12 06:05:12;;;;;;;2.10;1.00;;;;;;;20.70;58.28;99032.23;109188;1277;22475;-66
2022/07/12 06:07:39;;;;;;;1.20;1.10;;;;;;;20.55;58.59;99037.25;109041;1277;138755;-66
2022/07/12 06:10:06;;;;;;;1.50;1.30;;;;;;;20.41;58.64;99036.77;109127;1277;22427;-66
2022/07/12 06:12:33;;;;;;;2.90;1.20;;;;;;;20.27;58.71;99038.52;109005;1277;137259;-65
2022/07/12 06:14:59;;;;;;;2.30;1.50;;;;;;;20.11;59.07;99043.75;109029;1277;23543;-65
2022/07/12 06:17:26;;;;;;;2.70;1.30;;;;;;;19.99;59.19;99045.14;109046;1277;22479;-65
2022/07/12 06:19:53;;;;;;;4.20;1.10;;;;;;;19.85;59.60;99045.02;108981;1277;137913;-65
2022/07/12 06:22:21;;;;;;;3.30;1.20;;;;;;;19.70;59.88;99046.14;109061;1277;22579;-65
2022/07/12 06:24:47;;;;;;;2.30;1.30;;;;;;;19.55;60.20;99046.52;108917;1278;139040;-65
2022/07/12 06:27:14;;;;;;;1.90;1.20;;;;;;;19.43;60.42;99055.19;109043;1277;22487;-65
2022/07/12 06:29:41;;;;;;;2.30;1.20;;;;;;;19.29;60.36;99052.44;109095;1277;22398;-65
2022/07/12 06:32:08;;;;;;;1.70;1.10;;;;;;;19.15;60.36;99055.96;108975;1277;139185;-66
2022/07/12 06:34:37;;;;;;;2.60;1.30;;;;;;;19.01;60.80;99059.48;109147;1277;22574;-65
2022/07/12 06:37:07;;;;;;;1.40;1.10;;;;;;;18.90;61.39;99061.21;109095;1276;137619;-65
2022/07/12 06:39:37;;;;;;;1.60;1.40;;;;;;;18.80;61.97;99066.44;109108;1277;22567;-65
2022/07/12 06:42:04;;;;;;;1.70;1.40;;;;;;;18.71;62.11;99065.50;109173;1277;22553;-65
2022/07/12 06:44:32;;;;;;;1.60;1.30;;;;;;;18.65;62.36;99065.67;108921;1277;138563;-65
2022/07/12 06:46:59;;;;;;;3.00;1.40;;;;;;;18.61;62.41;99075.11;109026;1277;22464;-66
2022/07/12 06:49:26;;;;;;;1.00;0.80;;;;;;;18.58;62.45;99079.04;108883;1280;138025;-65
2022/07/12 06:51:52;;;;;;;1.30;1.10;;;;;;;18.57;62.96;99084.27;108997;1280;22463;-66
2022/07/12 06:54:19;;;;;;;3.60;1.20;;;;;;;18.58;62.69;99087.41;108945;1277;138295;-65
2022/07/12 06:56:46;;;;;;;1.10;1.00;;;;;;;18.60;62.62;99087.36;109193;1277;22524;-66
2022/07/12 06:59:13;;;;;;;4.20;1.20;;;;;;;18.61;62.66;99091.10;108912;1279;22461;-66
2022/07/12 07:01:43;;;;;;;1.30;1.10;;;;;;;18.62;62.70;99092.19;108910;1278;137876;-66
2022/07/12 07:04:10;;;;;;;2.30;0.90;;;;;;;18.65;62.62;99093.77;109036;1278;22546;-65
2022/07/12 07:06:36;;;;;;;3.60;1.20;;;;;;;18.69;61.92;99093.26;109030;1277;138240;-66
2022/07/12 07:09:07;;;;;;;2.30;1.20;;;;;;;18.74;62.33;99097.46;109011;1277;22578;-66
2022/07/12 07:11:35;;;;;;;2.90;0.90;;;;;;;18.79;62.67;99100.30;109048;1277;23531;-65
2022/07/12 07:14:02;;;;;;;2.00;1.30;;;;;;;18.85;62.55;99100.75;108884;1277;138890;-65
2022/07/12 07:16:29;;;;;;;2.80;1.40;;;;;;;18.90;62.61;99102.50;109041;1277;22598;-65
2022/07/12 07:18:56;;;;;;;2.40;1.10;;;;;;;18.94;62.23;99101.34;109000;1277;138459;-65
2022/07/12 07:21:23;;;;;;;2.40;1.50;;;;;;;18.97;61.80;99101.37;109008;1277;22587;-65
2022/07/12 07:23:51;;;;;;;1.50;1.20;;;;;;;18.98;61.60;99104.05;108940;1277;22562;-66
2022/07/12 07:26:18;;;;;;;2.40;1.20;;;;;;;18.99;61.33;99099.37;109005;1277;137035;-65
2022/07/12 07:31:33;;;;;;;1.80;1.10;;;;;;;18.99;61.17;99101.96;108905;1277;137653;-65
2022/07/12 07:34:00;;;;;;;1.80;1.10;;;;;;;18.99;61.27;99107.65;109071;1278;22415;-65
2022/07/12 07:36:27;;;;;;;2.10;1.10;;;;;;;18.97;60.93;99110.56;108963;1278;137851;-65
2022/07/12 07:38:54;;;;;;;0.90;0.90;;;;;;;18.93;60.76;99111.46;109055;1277;22578;-65
2022/07/12 07:41:21;;;;;;;2.80;1.30;;;;;;;18.89;60.78;99114.44;108972;1278;23269;-64
2022/07/12 07:43:48;;;;;;;2.30;1.40;;;;;;;18.87;61.62;99120.57;108887;1278;137216;-64
2022/07/12 07:46:14;;;;;;;1.30;1.10;;;;;;;18.87;61.36;99123.88;109038;1277;22675;-65
2022/07/12 07:48:41;;;;;;;1.10;1.00;;;;;;;18.84;60.77;99121.20;108921;1277;138042;-64
2022/07/12 07:51:08;;;;;;;3.20;1.10;;;;;;;18.80;60.72;99125.45;109008;1278;22284;-65
2022/07/12 07:53:35;;;;;;;2.10;1.10;;;;;;;18.73;60.61;99123.39;109311;1274;24621;-65
2022/07/12 07:56:02;;;;;;;1.80;1.10;;;;;;;18.68;60.72;99124.22;109295;1274;137059;-65
2022/07/12 07:58:28;;;;;;;5.10;1.30;;;;;;;18.62;60.98;99128.36;109370;1274;22916;-64
2022/07/12 08:00:55;;;;;;;3.30;1.30;;;;;;;18.56;61.13;99137.02;109237;1274;137672;-65
2022/07/12 08:03:22;;;;;;;2.70;1.20;;;;;;;18.47;61.29;99133.80;109337;1274;22447;-65
2022/07/12 08:05:50;;;;;;;1.90;1.30;;;;;;;18.37;61.10;99133.89;109379;1274;22441;-64
2022/07/12 08:08:18;;;;;;;2.60;1.40;;;;;;;18.28;60.94;99138.54;109231;1274;137170;-65
2022/07/12 08:10:45;;;;;;;1.60;0.90;;;;;;;18.18;60.43;99137.42;109275;1276;22464;-65
2022/07/12 08:13:12;;;;;;;1.10;1.00;;;;;;;18.08;60.23;99132.44;109181;1274;137319;-64
2022/07/12 08:15:39;;;;;;;2.50;1.40;;;;;;;18.02;60.62;99127.41;109446;1274;22465;-65
2022/07/12 08:18:05;;;;;;;4.60;1.40;;;;;;;17.97;61.31;99123.85;109330;1275;22397;-65
2022/07/12 08:20:33;;;;;;;2.70;1.00;;;;;;;17.95;62.01;99123.96;109323;1274;137458;-64
2022/07/12 08:23:12;;;;;;;2.00;1.30;;;;;;;17.97;62.68;99130.95;109344;1274;23421;-65
2022/07/12 08:25:39;;;;;;;2.60;1.20;;;;;;;18.03;62.99;99126.98;109257;1274;138129;-65
2022/07/12 08:28:06;;;;;;;1.50;1.30;;;;;;;18.12;63.06;99125.61;109352;1274;22448;-65
2022/07/12 08:30:33;;;;;;;1.20;1.10;;;;;;;18.23;62.76;99131.92;109187;1274;138088;-64
2022/07/12 08:33:00;;;;;;;1.70;1.50;;;;;;;18.33;62.78;99131.97;109332;1274;22393;-64
2022/07/12 08:35:27;;;;;;;3.50;1.50;;;;;;;18.45;62.56;99133.31;109312;1275;22500;-64
2022/07/12 08:37:54;;;;;;;3.90;0.90;;;;;;;18.52;62.17;99128.56;109320;1274;138068;-66
2022/07/12 08:40:21;;;;;;;1.40;1.30;;;;;;;18.58;61.51;99124.45;109345;1274;23292;-65
2022/07/12 08:42:48;;;;;;;1.70;1.20;;;;;;;18.62;61.31;99116.27;109248;1274;140771;-64
2022/07/12 08:45:15;;;;;;;2.90;1.50;;;;;;;18.66;61.12;99117.79;109339;1274;22426;-65
2022/07/12 08:47:42;;;;;;;4.00;1.20;;;;;;;18.71;61.37;99117.84;109380;1274;22596;-65
2022/07/12 08:50:13;;;;;;;1.70;1.30;;;;;;;18.76;60.86;99117.90;109251;1274;138797;-65
2022/07/12 08:52:44;;;;;;;2.10;1.00;;;;;;;18.79;60.47;99117.58;109342;1275;22491;-65
2022/07/12 08:55:30;;;;;;;2.80;1.10;;;;;;;18.82;60.82;99116.68;109215;1274;137631;-64
2022/07/12 08:57:58;;;;;;;3.60;1.40;;;;;;;18.86;61.15;99116.61;109299;1274;22444;-65
2022/07/12 09:00:26;;;;;;;3.30;1.00;;;;;;;18.91;61.09;99117.39;109273;1274;138201;-64
2022/07/12 09:02:57;;;;;;;1.70;1.30;;;;;;;18.97;61.36;99115.38;109347;1274;23580;-65
2022/07/12 09:05:28;;;;;;;2.90;2.00;;;;;;;19.03;62.22;99110.84;109356;1274;22477;-64
2022/07/12 09:08:02;;;;;;;1.70;1.10;;;;;;;19.14;61.95;99118.12;109194;1274;138689;-64
2022/07/12 09:10:29;;;;;;;2.10;1.10;;;;;;;19.21;61.07;99115.83;109347;1274;22464;-64
2022/07/12 09:12:56;;;;;;;1.80;1.10;;;;;;;19.28;61.06;99127.06;109190;1276;138198;-64
2022/07/12 09:15:23;;;;;;;2.80;1.30;;;;;;;19.34;60.95;99120.33;109308;1276;22582;-64
2022/07/12 09:17:57;;;;;;;3.40;1.20;;;;;;;19.39;60.61;99119.90;109263;1276;23466;-65
2022/07/12 09:20:25;;;;;;;3.10;1.10;;;;;;;19.44;60.68;99123.13;109217;1274;137729;-65
2022/07/12 09:22:57;;;;;;;2.90;1.60;;;;;;;19.50;60.56;99125.70;109300;1276;22476;-65
2022/07/12 09:25:24;;;;;;;1.90;1.20;;;;;;;19.55;60.18;99133.29;109197;1274;138977;-65
2022/07/12 09:27:53;;;;;;;2.10;1.00;;;;;;;19.59;59.75;99132.73;109272;1274;22666;-65
2022/07/12 09:30:23;;;;;;;2.70;1.10;;;;;;;19.62;59.83;99126.18;109278;1274;139159;-64
2022/07/12 09:36:07;;;;;;;6.30;1.40;;;;;;;19.69;58.97;99126.24;109238;1274;23483;-65
2022/07/12 09:38:35;;;;;;;4.90;1.30;;;;;;;19.73;59.20;99132.91;109290;1274;138289;-65
2022/07/12 09:41:01;;;;;;;1.80;1.20;;;;;;;19.77;58.59;99133.08;109306;1274;22345;-65
2022/07/12 09:43:29;;;;;;;2.90;1.20;;;;;;;19.82;58.57;99131.09;109197;1274;137426;-65
2022/07/12 09:45:56;;;;;;;2.30;1.20;;;;;;;19.87;58.51;99132.16;109317;1274;22503;-65
2022/07/12 09:48:23;;;;;;;1.70;0.90;;;;;;;19.92;58.48;99130.81;109176;1274;139348;-66
2022/07/12 09:50:50;;;;;;;3.40;1.00;;;;;;;19.96;57.78;99125.80;109318;1274;22450;-66
2022/07/12 09:53:35;;;;;;;2.80;1.10;;;;;;;20.04;57.46;99121.99;109357;1274;22463;-65
2022/07/12 09:56:05;;;;;;;2.10;1.10;;;;;;;20.11;56.55;99123.34;109201;1274;137733;-66
2022/07/12 09:58:55;;;;;;;0.80;0.80;;;;;;;20.15;55.95;99122.95;109238;1274;23474;-66
2022/07/12 10:01:30;;;;;;;3.10;1.00;;;;;;;20.15;55.29;99117.73;109110;1274;137367;-66
2022/07/12 10:03:59;;;;;;;3.80;1.20;;;;;;;20.18;55.20;99118.71;109304;1274;22571;-66
2022/07/12 10:06:27;;;;;;;1.10;0.80;;;;;;;20.18;55.30;99118.35;106953;1274;137534;-66
2022/07/12 10:09:02;;;;;;;1.50;0.70;;;;;;;20.20;54.80;99120.13;104937;1274;23196;-66
2022/07/12 10:11:29;;;;;;;1.60;1.10;;;;;;;20.18;54.18;99119.91;109366;1274;22494;-66
2022/07/12 10:14:16;;;;;;;1.50;0.70;;;;;;;20.14;53.83;99122.49;108989;1275;137556;-66
2022/07/12 10:16:43;;;;;;;1.90;1.10;;;;;;;20.08;54.11;99119.95;109107;1276;22445;-66
2022/07/12 10:19:31;;;;;;;2.10;0.90;;;;;;;20.03;54.53;99113.19;109227;1276;137214;-66
2022/07/12 10:22:01;;;;;;;;;;;;;;;19.98;54.99;99113.95;109231;1276;23180;-66
2022/07/12 10:24:30;;;;;;;1.80;1.00;;;;;;;19.94;55.43;99120.61;109168;1276;123804;-65
2022/07/12 10:27:20;;;;;;;1.70;0.80;;;;;;;19.92;55.80;99113.56;109235;1276;23308;-65
2022/07/12 10:29:49;;;;;;;1.50;1.00;;;;;;;19.92;55.97;99110.11;109240;1276;22451;-65
2022/07/12 10:32:35;;;;;;;1.60;1.00;;;;;;;19.97;56.66;99103.54;109170;1276;138666;-65
2022/07/12 10:35:32;;;;;;;2.20;0.80;;;;;;;20.05;57.59;99103.80;109251;1277;22449;-65
2022/07/12 10:38:11;;;;;;;4.10;0.90;;;;;;;20.15;56.70;99107.74;108982;1276;137534;-65
2022/07/12 10:40:44;;;;;;;1.20;0.80;;;;;;;20.17;56.15;99107.94;109188;1276;22475;-65
2022/07/12 10:43:10;;;;;;;2.00;1.10;;;;;;;20.17;56.55;99106.05;109131;1276;141899;-65
2022/07/12 10:45:39;;;;;;;1.30;0.80;;;;;;;20.16;56.42;99107.98;109224;1276;22505;-65
2022/07/12 10:48:20;;;;;;;1.00;0.70;;;;;;;20.14;56.77;99116.34;109241;1276;22444;-65
2022/07/12 10:50:55;;;;;;;4.90;1.60;;;;;;;20.08;57.39;99119.31;109216;1276;22463;-65
2022/07/12 10:53:23;;;;;;;1.30;0.90;;;;;;;19.99;58.22;99124.00;109209;1276;22524;-65
2022/07/12 10:56:03;;;;;;;2.70;1.00;;;;;;;19.91;59.22;99132.58;109122;1276;137970;-65
2022/07/12 10:58:30;;;;;;;1.30;0.90;;;;;;;19.85;61.08;99138.25;109224;1276;23817;-66
2022/07/12 11:01:09;;;;;;;1.20;0.80;;;;;;;19.84;61.47;99133.53;109126;1276;138725;-65
2022/07/12 11:03:41;;;;;;;3.10;1.00;;;;;;;19.85;60.52;99131.77;109307;1275;22547;-65
2022/07/12 11:06:18;;;;;;;1.10;0.90;;;;;;;19.87;59.68;99136.36;109246;1276;23227;-65
2022/07/12 11:08:51;;;;;;;1.10;0.90;;;;;;;19.88;58.56;99136.63;109288;1276;23306;-65
2022/07/12 11:11:18;;;;;;;2.30;0.70;;;;;;;19.86;58.61;99134.28;109337;1274;22500;-65
2022/07/12 11:13:45;;;;;;;0.90;0.80;;;;;;;19.86;59.26;99132.52;109383;1274;137747;-65
2022/07/12 11:16:12;;;;;;;1.90;1.20;;;;;;;19.85;60.45;99126.30;109440;1274;23575;-65
2022/07/12 11:18:39;;;;;;;4.40;1.30;;;;;;;19.83;61.61;99123.29;109319;1274;137512;-65
2022/07/12 11:21:06;;;;;;;1.70;1.30;;;;;;;19.81;63.09;99115.29;109366;1274;22492;-65
2022/07/12 11:23:33;;;;;;;2.30;1.10;;;;;;;19.77;63.35;99104.73;109336;1274;23446;-65
2022/07/12 11:26:00;;;;;;;0.90;0.80;;;;;;;19.74;62.71;99102.55;109234;1274;139421;-65
2022/07/12 11:28:28;;;;;;;0.80;0.70;;;;;;;19.72;63.03;99103.58;109403;1274;22441;-65
2022/07/12 11:31:28;;;;;;;1.20;0.80;;;;;;;19.70;62.98;99111.44;109123;1274;139925;-64
2022/07/12 11:33:55;;;;;;;1.00;0.90;;;;;;;19.68;62.54;99122.02;108586;1282;22501;-65
2022/07/12 11:36:24;;;;;;;1.70;0.90;;;;;;;19.65;62.00;99131.05;106221;1283;139189;-64